createdAt,value
2022-12-03T00:04:22.780Z,14.17
2022-12-03T00:09:16.659Z,14.00
2022-12-03T00:14:09.227Z,13.77
2022-12-03T00:19:01.751Z,14.20
2022-12-03T00:23:55.161Z,14.00
2022-12-03T00:28:49.052Z,14.00
2022-12-03T00:33:41.652Z,12.97
2022-12-03T00:38:34.280Z,14.23
2022-12-03T00:43:26.839Z,12.57
2022-12-03T00:48:20.705Z,12.97
2022-12-03T00:53:13.246Z,14.57
2022-12-03T00:58:08.309Z,13.57
2022-12-03T01:03:00.915Z,13.03
2022-12-03T01:07:54.947Z,12.57
2022-12-03T01:12:47.526Z,13.03
2022-12-03T01:17:40.422Z,13.63
2022-12-03T01:22:33.261Z,13.63
2022-12-03T01:27:27.122Z,13.13
2022-12-03T01:32:20.196Z,13.57
2022-12-03T01:37:12.862Z,14.07
2022-12-03T01:42:05.797Z,13.87
2022-12-03T01:47:01.119Z,14.00
2022-12-03T01:51:53.795Z,15.13
2022-12-03T01:56:47.226Z,14.70
2022-12-03T02:01:39.826Z,15.07
2022-12-03T02:06:33.806Z,14.90
2022-12-03T02:11:29.220Z,14.80
2022-12-03T02:16:21.852Z,15.27
2022-12-03T02:21:17.731Z,15.40
2022-12-03T02:26:11.687Z,15.40
2022-12-03T02:31:05.238Z,13.40
2022-12-03T02:36:03.119Z,16.97
2022-12-03T02:40:57.709Z,13.57
2022-12-03T02:45:53.057Z,14.53
2022-12-03T02:50:47.320Z,13.80
2022-12-03T02:55:40.048Z,15.90
2022-12-03T03:00:32.665Z,15.63
2022-12-03T03:05:26.715Z,16.33
2022-12-03T03:10:22.043Z,15.70
2022-12-03T03:15:14.787Z,15.87
2022-12-03T03:20:08.978Z,15.27
2022-12-03T03:25:03.356Z,14.40
2022-12-03T03:29:57.166Z,15.00
2022-12-03T03:34:49.830Z,15.57
2022-12-03T03:39:42.421Z,15.50
2022-12-03T03:44:36.587Z,16.50
2022-12-03T03:49:29.531Z,17.23
2022-12-03T03:54:22.760Z,16.80
2022-12-03T03:59:15.443Z,15.60
2022-12-03T04:04:16.734Z,15.43
2022-12-03T04:09:09.324Z,14.30
2022-12-03T04:14:02.190Z,17.00
2022-12-03T04:18:54.709Z,17.10
2022-12-03T04:23:49.167Z,17.60
2022-12-03T04:28:50.642Z,17.10
2022-12-03T04:34:00.767Z,16.30
2022-12-03T04:38:54.734Z,17.80
2022-12-03T04:44:01.220Z,17.90
2022-12-03T04:48:53.776Z,18.10
2022-12-03T04:53:46.564Z,17.93
2022-12-03T04:58:40.521Z,18.90
2022-12-03T05:03:33.098Z,22.57
2022-12-03T05:08:25.660Z,24.20
2022-12-03T05:13:18.227Z,22.33
2022-12-03T05:18:12.133Z,29.97
2022-12-03T05:23:04.734Z,25.63
2022-12-03T05:27:57.290Z,20.33
2022-12-03T05:32:50.023Z,27.17
2022-12-03T05:37:43.953Z,21.40
2022-12-03T05:42:54.443Z,22.40
2022-12-03T05:47:46.992Z,21.17
2022-12-03T05:52:39.508Z,21.43
2022-12-03T05:57:33.414Z,22.47
2022-12-03T06:02:26.004Z,24.10
2022-12-03T06:07:18.677Z,73.10
2022-12-03T06:12:11.284Z,39.93
2022-12-03T06:17:05.296Z,28.03
2022-12-03T06:21:57.879Z,25.23
2022-12-03T06:26:50.419Z,28.40
2022-12-03T06:31:43.084Z,23.83
2022-12-03T06:36:37.024Z,26.10
2022-12-03T06:41:29.571Z,32.40
2022-12-03T06:46:22.176Z,26.70
2022-12-03T06:51:14.784Z,28.00
2022-12-03T06:56:08.953Z,27.33
2022-12-03T07:01:01.558Z,27.00
2022-12-03T07:05:54.152Z,27.37
2022-12-03T07:10:46.783Z,26.83
2022-12-03T07:15:40.764Z,26.37
2022-12-03T07:20:33.403Z,26.30
2022-12-03T07:25:26.003Z,28.83
2022-12-03T07:30:19.097Z,23.60
2022-12-03T07:35:13.088Z,29.07
2022-12-03T07:40:06.695Z,29.97
2022-12-03T07:44:59.310Z,28.30
2022-12-03T07:49:51.878Z,25.00
2022-12-03T07:54:45.812Z,27.57
2022-12-03T07:59:38.388Z,31.17
2022-12-03T08:04:30.964Z,25.43
2022-12-03T08:09:23.529Z,34.90
2022-12-03T08:14:18.424Z,26.20
2022-12-03T08:19:11.937Z,30.30
2022-12-03T08:24:12.657Z,25.17
2022-12-03T08:29:06.584Z,20.60
2022-12-03T08:34:07.632Z,26.53
2022-12-03T08:39:01.464Z,24.17
2022-12-03T08:43:54.039Z,27.73
2022-12-03T08:48:48.946Z,27.90
2022-12-03T08:53:46.508Z,36.27
2022-12-03T08:58:39.509Z,37.30
2022-12-03T09:03:32.943Z,31.10
2022-12-03T09:08:25.575Z,28.67
2022-12-03T09:13:19.479Z,24.20
2022-12-03T09:18:12.005Z,28.70
2022-12-03T09:23:04.598Z,29.73
2022-12-03T09:27:57.141Z,35.40
2022-12-03T09:32:51.035Z,30.63
2022-12-03T09:37:43.572Z,33.87
2022-12-03T09:42:36.875Z,26.80
2022-12-03T09:47:30.631Z,28.73
2022-12-03T09:52:28.308Z,27.30
2022-12-03T09:57:21.065Z,24.43
2022-12-03T10:02:20.238Z,24.37
2022-12-03T10:07:13.163Z,27.17
2022-12-03T10:12:07.332Z,26.10
2022-12-03T10:17:00.324Z,28.93
2022-12-03T10:21:52.987Z,25.10
2022-12-03T10:26:46.578Z,36.67
2022-12-03T10:31:40.824Z,29.07
2022-12-03T10:36:33.788Z,27.27
2022-12-03T10:41:27.515Z,28.80
2022-12-03T10:46:21.365Z,25.93
2022-12-03T10:51:20.775Z,21.87
2022-12-03T10:56:15.977Z,23.40
2022-12-03T11:01:15.099Z,25.03
2022-12-03T11:06:08.037Z,24.67
2022-12-03T11:11:02.860Z,25.20
2022-12-03T11:15:55.604Z,25.30
2022-12-03T11:21:07.789Z,25.13
2022-12-03T11:26:00.693Z,24.73
2022-12-03T11:31:02.417Z,25.50
2022-12-03T11:36:12.888Z,25.00
2022-12-03T11:41:09.202Z,23.80
2022-12-03T11:46:10.285Z,23.20
2022-12-03T11:51:02.928Z,24.00
2022-12-03T11:56:06.587Z,21.73
2022-12-03T12:01:00.024Z,23.00
2022-12-03T12:06:04.641Z,21.20
2022-12-03T12:10:57.522Z,22.47
2022-12-03T12:15:50.229Z,19.33
2022-12-03T12:20:42.851Z,19.70
2022-12-03T12:25:38.234Z,20.77
2022-12-03T12:30:31.177Z,20.23
2022-12-03T12:35:25.000Z,20.77
2022-12-03T12:40:19.528Z,21.13
2022-12-03T12:45:17.269Z,20.67
2022-12-03T12:50:10.421Z,21.20
2022-12-03T12:55:05.311Z,22.13
2022-12-03T12:59:58.096Z,22.50
2022-12-03T13:04:52.024Z,21.60
2022-12-03T13:09:44.575Z,21.80
2022-12-03T13:14:38.359Z,21.37
2022-12-03T13:19:31.672Z,22.40
2022-12-03T13:24:30.418Z,21.13
2022-12-03T13:29:23.725Z,22.77
2022-12-03T13:34:19.748Z,20.73
2022-12-03T13:39:17.566Z,20.03
2022-12-03T13:44:19.128Z,21.00
2022-12-03T13:49:16.980Z,21.30
2022-12-03T13:54:14.561Z,20.30
2022-12-03T13:59:08.936Z,21.57
2022-12-03T14:04:02.932Z,20.50
2022-12-03T14:08:55.558Z,21.67
2022-12-03T14:13:48.137Z,20.57
2022-12-03T14:18:40.797Z,21.43
2022-12-03T14:23:34.706Z,22.00
2022-12-03T14:28:27.528Z,22.87
2022-12-03T14:33:20.076Z,24.40
2022-12-03T14:38:12.771Z,22.20
2022-12-03T14:43:06.785Z,23.63
2022-12-03T14:47:59.344Z,22.93
2022-12-03T14:52:51.940Z,23.23
2022-12-03T14:57:44.535Z,24.50
2022-12-03T15:02:38.606Z,23.40
2022-12-03T15:07:31.929Z,24.67
2022-12-03T15:12:24.685Z,31.50
2022-12-03T15:17:21.500Z,31.30
2022-12-03T15:22:19.511Z,34.37
2022-12-03T15:27:12.438Z,42.27
2022-12-03T15:32:05.175Z,41.50
2022-12-03T15:36:58.118Z,44.53
2022-12-03T15:41:52.129Z,41.40
2022-12-03T15:46:45.157Z,45.20
2022-12-03T15:51:37.833Z,45.83
2022-12-03T15:56:30.520Z,48.17
2022-12-03T16:01:24.695Z,47.43
2022-12-03T16:06:18.218Z,46.27
2022-12-03T16:11:10.903Z,52.27
2022-12-03T16:16:03.568Z,52.80
2022-12-03T16:20:57.565Z,54.50
2022-12-03T16:25:50.118Z,55.67
2022-12-03T16:30:42.798Z,55.93
2022-12-03T16:35:35.442Z,59.20
2022-12-03T16:40:29.642Z,57.73
2022-12-03T16:45:51.257Z,58.07
2022-12-03T16:50:43.861Z,62.80
2022-12-03T16:55:38.117Z,59.00
2022-12-03T17:00:30.703Z,60.00
2022-12-03T17:05:23.262Z,61.90
2022-12-03T17:10:15.904Z,59.60
2022-12-03T17:15:10.481Z,57.20
2022-12-03T17:20:03.718Z,58.17
2022-12-03T17:24:56.335Z,58.10
2022-12-03T17:29:48.932Z,59.23
2022-12-03T17:34:42.900Z,60.57
2022-12-03T17:39:35.494Z,63.60
2022-12-03T17:44:28.012Z,62.37
2022-12-03T17:49:20.535Z,70.00
2022-12-03T17:54:14.553Z,65.10
2022-12-03T17:59:07.124Z,64.17
2022-12-03T18:03:59.719Z,59.80
2022-12-03T18:08:52.324Z,60.23
2022-12-03T18:13:46.252Z,59.70
2022-12-03T18:18:38.810Z,66.23
2022-12-03T18:23:31.633Z,78.57
2022-12-03T18:28:24.187Z,76.70
2022-12-03T18:33:18.351Z,75.53
2022-12-03T18:38:11.738Z,70.87
2022-12-03T18:43:06.880Z,68.57
2022-12-03T18:47:59.516Z,74.67
2022-12-03T18:52:53.505Z,68.77
2022-12-03T18:57:46.036Z,72.33
2022-12-03T19:03:01.873Z,95.80
2022-12-03T19:07:53.853Z,80.77
2022-12-03T19:12:48.057Z,67.43
2022-12-03T19:17:40.652Z,63.43
2022-12-03T19:22:34.271Z,62.10
2022-12-03T19:27:26.811Z,49.67
2022-12-03T19:32:20.702Z,52.90
2022-12-03T19:37:13.585Z,67.00
2022-12-03T19:42:06.248Z,48.00
2022-12-03T19:46:58.846Z,51.00
2022-12-03T19:51:52.748Z,57.73
2022-12-03T19:56:46.259Z,52.57
2022-12-03T20:01:40.750Z,67.57
2022-12-03T20:06:34.770Z,51.57
2022-12-03T20:11:29.616Z,48.30
2022-12-03T20:16:22.290Z,57.07
2022-12-03T20:21:15.788Z,51.40
2022-12-03T20:26:08.907Z,46.37
2022-12-03T20:31:03.950Z,44.27
2022-12-03T20:35:57.261Z,48.10
2022-12-03T20:40:49.941Z,40.27
2022-12-03T20:45:42.592Z,45.87
2022-12-03T20:50:38.205Z,43.90
2022-12-03T20:55:32.840Z,43.63
2022-12-03T21:00:25.823Z,41.27
2022-12-03T21:05:18.561Z,42.00
2022-12-03T21:10:32.816Z,41.00
2022-12-03T21:15:25.446Z,42.37
2022-12-03T21:20:21.202Z,41.27
2022-12-03T21:25:15.592Z,44.90
2022-12-03T21:30:08.793Z,42.53
2022-12-03T21:35:01.442Z,44.60
2022-12-03T21:39:54.294Z,51.43
2022-12-03T21:44:48.459Z,46.67
2022-12-03T21:49:41.125Z,36.27
2022-12-03T21:54:33.721Z,42.10
2022-12-03T21:59:26.364Z,39.90
2022-12-03T22:04:20.312Z,46.23
2022-12-03T22:09:12.911Z,44.90
2022-12-03T22:14:06.913Z,56.83
2022-12-03T22:18:59.552Z,56.37
2022-12-03T22:23:53.554Z,52.73
2022-12-03T22:28:46.989Z,43.13
2022-12-03T22:33:39.656Z,40.53
2022-12-03T22:38:32.542Z,43.13
2022-12-03T22:43:26.848Z,41.03
2022-12-03T22:48:19.394Z,38.83
2022-12-03T22:53:12.113Z,37.67
2022-12-03T22:58:05.359Z,31.60
2022-12-03T23:02:59.417Z,32.90
2022-12-03T23:07:52.421Z,41.47
2022-12-03T23:12:45.036Z,35.97
2022-12-03T23:17:37.962Z,41.27
2022-12-03T23:22:32.020Z,42.00
2022-12-03T23:27:24.913Z,45.07
2022-12-03T23:32:17.834Z,43.60
2022-12-03T23:37:10.603Z,42.70
2022-12-03T23:42:04.612Z,45.80
2022-12-03T23:46:57.610Z,44.03
2022-12-03T23:51:50.635Z,35.90
2022-12-03T23:56:43.573Z,38.67
